MES1321 KPNS-KMEM
Flight info
| Callsign | MES1321 |
|---|---|
| Flight time | N/A |
| Altitude | 32000 |
| Route | KPNS 17 DCT FASON MONAA4 KMEM GRIIT R27 |
| Aircraft | CRJ2/M-V/N |
Departure
| Time | 2026-04-22 05:10 |
|---|---|
| Airport | Pensacola International Airport (KPNS) |
Arrival
| Time | N/A |
|---|---|
| Airport | Memphis International Airport (KMEM) |
| Time | Latitude | Longitude | Altitude | Speed | Heading |
|---|---|---|---|---|---|
| 2026-04-22 05:04 | 30.47440 | -87.19317 | 129 ft | 4 kts | 118° |
| 2026-04-22 05:04 | 30.47402 | -87.19291 | 129 ft | 9 kts | 181° |
| 2026-04-22 05:04 | 30.47334 | -87.19273 | 129 ft | 7 kts | 122° |
| 2026-04-22 05:04 | 30.47339 | -87.19196 | 129 ft | 12 kts | 79° |
| 2026-04-22 05:05 | 30.47357 | -87.19109 | 129 ft | 3 kts | 73° |
| 2026-04-22 05:05 | 30.47373 | -87.19043 | 129 ft | 15 kts | 80° |
| 2026-04-22 05:05 | 30.47458 | -87.18998 | 129 ft | 17 kts | 346° |
| 2026-04-22 05:05 | 30.47566 | -87.19029 | 129 ft | 15 kts | 346° |
| 2026-04-22 05:06 | 30.47667 | -87.19048 | 129 ft | 14 kts | 355° |
| 2026-04-22 05:06 | 30.47754 | -87.19078 | 129 ft | 13 kts | 343° |
| 2026-04-22 05:06 | 30.47837 | -87.19101 | 129 ft | 12 kts | 347° |
| 2026-04-22 05:06 | 30.47914 | -87.19121 | 129 ft | 11 kts | 349° |
| 2026-04-22 05:07 | 30.47984 | -87.19139 | 129 ft | 10 kts | 347° |
| 2026-04-22 05:07 | 30.48048 | -87.19158 | 129 ft | 9 kts | 345° |
| 2026-04-22 05:07 | 30.48108 | -87.19175 | 129 ft | 11 kts | 346° |
| 2026-04-22 05:07 | 30.48218 | -87.19205 | 129 ft | 11 kts | 354° |
| 2026-04-22 05:08 | 30.48262 | -87.19159 | 129 ft | 3 kts | 75° |
| 2026-04-22 05:08 | 30.48262 | -87.19157 | 129 ft | 0 kts | 75° |
| 2026-04-22 05:08 | 30.48263 | -87.19153 | 129 ft | 4 kts | 75° |
| 2026-04-22 05:08 | 30.48273 | -87.19089 | 129 ft | 10 kts | 87° |
| 2026-04-22 05:09 | 30.48238 | -87.19050 | 129 ft | 9 kts | 168° |
| 2026-04-22 05:09 | 30.48136 | -87.19025 | 129 ft | 41 kts | 168° |
| 2026-04-22 05:09 | 30.47423 | -87.18835 | 129 ft | 115 kts | 167° |
| 2026-04-22 05:09 | 30.46964 | -87.18715 | 130 ft | 139 kts | 167° |
| 2026-04-22 05:10 | 30.46008 | -87.18462 | 573 ft | 138 kts | 166° |
| 2026-04-22 05:10 | 30.45063 | -87.18185 | 1058 ft | 145 kts | 165° |
| 2026-04-22 05:10 | 30.44067 | -87.17912 | 1566 ft | 149 kts | 169° |
| 2026-04-22 05:10 | 30.43024 | -87.17669 | 2079 ft | 154 kts | 165° |
| 2026-04-22 05:11 | 30.42148 | -87.17023 | 2604 ft | 149 kts | 123° |
| 2026-04-22 05:11 | 30.41953 | -87.15913 | 3180 ft | 141 kts | 78° |
| 2026-04-22 05:11 | 30.42529 | -87.15044 | 3718 ft | 142 kts | 34° |
| 2026-04-22 05:11 | 30.43529 | -87.14944 | 4156 ft | 153 kts | 347° |
| 2026-04-22 05:12 | 30.44496 | -87.15472 | 4643 ft | 155 kts | 333° |
| 2026-04-22 05:12 | 30.45437 | -87.16109 | 5062 ft | 163 kts | 331° |
| 2026-04-22 05:12 | 30.46440 | -87.16802 | 5500 ft | 174 kts | 331° |
| 2026-04-22 05:12 | 30.47514 | -87.17531 | 5992 ft | 184 kts | 334° |
| 2026-04-22 05:13 | 30.48700 | -87.18196 | 6478 ft | 193 kts | 340° |
| 2026-04-22 05:13 | 30.49973 | -87.18749 | 6939 ft | 199 kts | 345° |
| 2026-04-22 05:13 | 30.51320 | -87.19221 | 7364 ft | 207 kts | 347° |
| 2026-04-22 05:13 | 30.52740 | -87.19647 | 7768 ft | 211 kts | 349° |
| 2026-04-22 05:14 | 30.54175 | -87.20033 | 8226 ft | 215 kts | 351° |
| 2026-04-22 05:14 | 30.55679 | -87.20408 | 8704 ft | 229 kts | 352° |
| 2026-04-22 05:14 | 30.57289 | -87.20790 | 9184 ft | 243 kts | 352° |
| 2026-04-22 05:14 | 30.58985 | -87.21179 | 9648 ft | 253 kts | 351° |
| 2026-04-22 05:15 | 30.60735 | -87.21576 | 10105 ft | 258 kts | 350° |
| 2026-04-22 05:15 | 30.62517 | -87.21977 | 10563 ft | 267 kts | 350° |
| 2026-04-22 05:15 | 30.64394 | -87.22397 | 11032 ft | 283 kts | 349° |
| 2026-04-22 05:15 | 30.66384 | -87.22841 | 11498 ft | 298 kts | 348° |
| 2026-04-22 05:16 | 30.68467 | -87.23305 | 11961 ft | 311 kts | 348° |